Latest Weather Observations for Flinders Island Airport

IDT60801

Issued at 3:31 pm EST Monday 23 September 2019 (issued every 10 minutes, with the page automatically refreshed every 10 minutes)

About weather observations | Map of weather stations | Latest weather observations for TAS | Other Formats
Station Details ID: 099005 Name: FLINDERS ISLAND AIRPORT Lat: -40.09 Lon: 148.00 Height: 9.0 m
Data from the previous 72 hours. | See also: Recent months at Flinders Island Airport
Date/Time
EST
Temp
°C
App
Temp
°C
Dew
Point
°C
Rel
Hum
%
Delta-T
°C
Wind Press
QNH
hPa
Press
MSL
hPa
Rain since
9am
mm
Dir  Spd
km/h
Gust
km/h
Spd
kts
Gust
kts
23/03:30pm 12.4 5.9 8.1 75 2.1 W 32 37 17 20 1020.0 1020.0 1.2
23/03:00pm 12.5 5.9 8.4 76 2.0 W 33 39 18 21 1020.1 1020.1 1.2
23/02:30pm 12.6 6.1 8.1 74 2.2 WSW 32 39 17 21 1020.0 1020.0 1.2
23/02:00pm 12.5 6.0 8.2 75 2.1 WSW 32 37 17 20 1019.8 1019.8 1.2
23/01:30pm 12.7 6.7 8.6 76 2.0 WSW 30 35 16 19 1019.8 1019.8 1.2
23/01:00pm 12.0 5.4 7.7 75 2.1 WSW 32 37 17 20 1019.8 1019.8 1.2
23/12:39pm 12.7 6.9 9.3 80 1.7 W 30 33 16 18 1019.8 1019.8 1.2
23/12:30pm 12.5 6.6 9.0 79 1.8 WSW 30 33 16 18 1019.8 1019.8 1.2
23/12:00pm 12.1 6.5 8.6 79 1.7 W 28 33 15 18 1019.7 1019.7 1.2
23/11:30am 12.4 7.8 9.6 83 1.4 W 24 32 13 17 1019.8 1019.8 1.2
23/11:22am 12.4 7.4 9.6 83 1.4 W 26 30 14 16 1019.8 1019.8 1.2
23/11:00am 12.3 8.5 9.9 85 1.2 W 20 28 11 15 1019.8 1019.8 1.2
23/10:30am 11.8 8.7 10.2 90 0.8 WNW 17 20 9 11 1020.0 1020.0 1.2
23/10:27am 11.9 8.9 10.6 92 0.7 NW 17 20 9 11 1019.9 1019.9 1.2
23/10:00am 10.0 7.6 9.9 99 0.1 NW 13 15 7 8 1020.3 1020.3 1.2
23/09:30am 8.8 7.2 8.7 99 0.0 NNW 7 9 4 5 1020.3 1020.3 1.2
23/09:17am 8.4 5.5 8.3 99 0.0 WNW 13 17 7 9 1020.3 1020.3 1.0
23/09:00am 8.1 3.0 7.7 97 0.2 WSW 24 33 13 18 1020.5 1020.5 4.6
23/08:53am 8.1 1.1 7.0 93 0.5 WSW 33 52 18 28 1020.3 1020.3 4.0
23/08:48am 8.1 1.2 6.4 89 0.8 W 32 52 17 28 1020.4 1020.4 3.4
23/08:43am 11.1 7.1 9.0 87 1.0 WNW 20 52 11 28 1020.3 1020.3 2.6
23/08:30am 11.5 9.0 8.4 81 1.5 NNW 11 15 6 8 1019.8 1019.8 2.6
23/08:00am 10.0 8.3 9.9 99 0.1 ENE 9 13 5 7 1019.7 1019.7 2.6
23/07:30am 8.5 6.0 8.4 99 0.0 ENE 11 11 6 6 1019.6 1019.6 2.6
23/07:00am 7.2 4.4 7.1 99 0.0 NE 11 13 6 7 1019.7 1019.7 2.6
23/06:30am 6.9 4.1 6.8 99 0.0 ENE 11 13 6 7 1019.4 1019.4 2.6
23/06:00am 6.9 4.1 6.8 99 0.0 NE 11 13 6 7 1019.5 1019.5 2.6
23/05:30am 7.9 6.6 7.8 99 0.0 NE 4 9 2 5 1019.3 1019.3 2.6
23/05:00am 8.0 5.4 7.9 99 0.0 WSW 11 13 6 7 1019.6 1019.6 2.6
23/04:33am 8.6 3.7 8.3 98 0.1 WSW 24 30 13 16 1019.7 1019.7 2.6
23/04:30am 8.6 3.3 8.5 99 0.0 WSW 26 32 14 17 1019.8 1019.8 2.6
23/04:00am 8.4 2.3 8.1 98 0.1 W 30 41 16 22 1020.1 1020.1 0.8
23/03:47am 8.2 5.3 8.1 99 0.0 NNW 13 48 7 26 1020.1 1020.1 0.4
23/03:30am 8.8 7.2 8.7 99 0.0 N 7 9 4 5 1019.7 1019.7 0.4
23/03:00am 5.5 2.8 5.4 99 0.0 NNE 9 11 5 6 1019.9 1019.9 0.4
23/02:30am 4.4 1.8 4.3 99 0.0 NE 7 11 4 6 1019.9 1019.9 0.4
23/02:00am 3.9 0.8 3.6 98 0.1 NE 9 11 5 6 1020.4 1020.4 0.4
23/01:30am 4.6 0.6 3.1 90 0.6 W 13 19 7 10 1020.6 1020.6 0.4
23/01:00am 9.2 5.6 6.6 84 1.2 WNW 15 20 8 11 1020.9 1020.9 0.4
23/12:30am 9.8 5.7 6.3 79 1.6 W 17 26 9 14 1021.0 1021.0 0.4
23/12:00am 9.6 5.9 6.3 80 1.5 WNW 15 19 8 10 1021.1 1021.1 0.4
 
Date/Time
EST
Temp
°C
App
Temp
°C
Dew
Point
°C
Rel
Hum
%
Delta-T
°C
Wind Press
QNH
hPa
Press
MSL
hPa
Rain since
9am
mm
Dir  Spd
km/h
Gust
km/h
Spd
kts
Gust
kts
22/11:30pm 9.9 5.2 5.9 76 1.8 W 20 28 11 15 1021.3 1021.3 0.4
22/11:00pm 10.3 5.6 5.9 74 2.0 W 20 30 11 16 1021.3 1021.3 0.4
22/10:30pm 10.3 5.3 6.3 76 1.9 W 22 30 12 16 1021.5 1021.5 0.4
22/10:00pm 10.6 5.2 6.4 75 2.0 WNW 24 32 13 17 1021.5 1021.5 0.4
22/09:30pm 10.0 5.8 7.4 84 1.2 W 19 24 10 13 1021.7 1021.7 0.4
22/09:00pm 10.1 4.5 7.2 82 1.4 W 26 33 14 18 1021.7 1021.7 0.4
22/08:30pm 10.2 4.5 6.7 79 1.6 W 26 35 14 19 1021.8 1021.8 0.4
22/08:00pm 10.0 4.4 7.1 82 1.4 W 26 33 14 18 1021.7 1021.7 0.4
22/07:45pm 10.9 4.0 6.6 75 2.0 W 32 50 17 27 1021.7 1021.7 0.4
22/07:30pm 10.5 3.9 6.1 74 2.0 W 30 37 16 20 1021.5 1021.5 0.4
22/07:00pm 10.5 4.2 5.9 73 2.1 W 28 37 15 20 1021.1 1021.1 0.4
22/06:30pm 10.7 3.5 6.1 73 2.1 W 33 41 18 22 1021.0 1021.0 0.4
22/06:00pm 10.8 4.2 6.2 73 2.1 WNW 30 37 16 20 1020.7 1020.7 0.4
22/05:30pm 10.9 3.9 6.1 72 2.2 WNW 32 41 17 22 1020.7 1020.7 0.4
22/05:00pm 11.4 4.4 6.1 70 2.5 W 32 43 17 23 1020.4 1020.4 0.4
22/04:30pm 11.6 4.8 6.7 72 2.3 WNW 32 41 17 22 1020.3 1020.3 0.4
22/04:00pm 11.9 4.3 6.0 67 2.8 W 35 44 19 24 1020.0 1020.0 0.4
22/03:30pm 12.5 5.6 7.2 70 2.6 WNW 33 41 18 22 1019.9 1019.9 0.4
22/03:00pm 12.8 6.1 7.5 70 2.6 WNW 32 41 17 22 1019.8 1019.8 0.4
22/02:44pm 11.5 5.7 7.8 78 1.8 W 28 35 15 19 1019.7 1019.7 0.4
22/02:30pm 10.1 2.7 8.2 88 0.9 W 37 50 20 27 1019.9 1019.9 0.4
22/02:27pm 9.4 1.6 6.8 84 1.2 W 37 50 20 27 1020.0 1020.0 0.2
22/02:00pm 11.7 3.9 5.1 64 3.0 WNW 35 46 19 25 1019.9 1019.9 0.2
22/01:30pm 12.5 5.3 5.2 61 3.4 W 32 43 17 23 1019.8 1019.8 0.2
22/01:00pm 12.8 5.6 4.8 58 3.7 WNW 32 43 17 23 1020.0 1020.0 0.2
22/12:30pm 12.9 5.1 4.8 58 3.7 W 35 43 19 23 1020.0 1020.0 0.2
22/12:00pm 12.8 5.1 5.2 60 3.5 W 35 48 19 26 1020.0 1020.0 0.2
22/11:30am 12.6 5.3 5.5 62 3.3 W 33 43 18 23 1019.9 1019.9 0.2
22/11:00am 12.4 4.1 6.0 65 3.0 W 39 46 21 25 1019.8 1019.8 0.2
22/10:30am 12.3 5.9 8.4 77 1.9 W 32 41 17 22 1019.8 1019.8 0.2
22/10:27am 11.5 5.6 7.6 77 1.9 W 28 39 15 21 1019.8 1019.8 0.2
22/10:14am 9.8 2.3 6.5 80 1.5 WSW 35 46 19 25 1020.0 1020.0 0.2
22/10:00am 11.7 4.8 7.2 74 2.2 WSW 33 41 18 22 1019.9 1019.9 0.0
22/09:30am 12.0 4.3 5.4 64 3.1 W 35 46 19 25 1019.8 1019.8 0.0
22/09:00am 11.1 2.2 5.2 67 2.7 W 41 48 22 26 1019.6 1019.6 5.8
22/08:30am 11.4 3.6 4.8 64 3.0 W 35 48 19 26 1019.2 1019.2 5.8
22/08:00am 10.9 3.3 5.7 70 2.4 W 35 44 19 24 1018.9 1018.9 5.8
22/07:30am 10.3 2.3 7.4 82 1.4 WSW 39 48 21 26 1018.5 1018.5 5.8
22/07:18am 10.7 3.6 5.5 70 2.4 W 32 50 17 27 1018.3 1018.3 5.8
22/07:00am 10.6 3.6 5.8 72 2.2 W 32 41 17 22 1018.0 1018.0 5.8
22/06:30am 10.3 3.3 7.0 80 1.6 W 33 41 18 22 1017.6 1017.7 5.8
22/06:00am 9.9 3.2 7.2 83 1.3 W 32 39 17 21 1017.2 1017.3 5.8
22/05:30am 9.9 2.9 6.8 81 1.5 W 33 41 18 22 1016.8 1016.9 5.8
22/05:00am 9.6 3.0 7.9 89 0.8 W 32 37 17 20 1016.5 1016.6 5.8
22/04:30am 9.9 3.6 7.5 85 1.1 W 30 39 16 21 1016.3 1016.4 5.8
22/04:01am 9.6 3.1 8.0 90 0.8 W 32 41 17 22 1016.0 1016.1 5.8
22/04:00am 9.6 3.1 8.0 90 0.8 W 32 44 17 24 1016.0 1016.1 5.8
22/03:45am 9.4 0.7 7.7 89 0.8 W 43 56 23 30 1015.9 1016.0 5.6
22/03:38am 10.6 2.8 6.7 77 1.8 W 37 56 20 30 1015.7 1015.8 5.6
22/03:30am 10.6 3.8 6.9 78 1.7 W 32 41 17 22 1015.8 1015.9 5.6
22/03:00am 10.5 4.1 7.0 79 1.7 W 30 37 16 20 1015.7 1015.8 5.6
22/02:30am 10.6 4.2 7.1 79 1.7 W 30 39 16 21 1015.8 1015.9 5.6
22/02:00am 10.6 3.7 7.3 80 1.6 W 33 43 18 23 1015.6 1015.7 5.6
22/01:30am 10.6 3.9 7.3 80 1.6 W 32 39 17 21 1015.5 1015.6 5.6
22/01:00am 10.4 3.0 6.9 79 1.7 W 35 48 19 26 1015.3 1015.4 5.6
22/12:30am 10.4 3.2 7.5 82 1.4 W 35 46 19 25 1015.0 1015.1 5.6
22/12:00am 10.8 4.3 8.0 83 1.4 W 32 48 17 26 1014.6 1014.7 5.6
 
Date/Time
EST
Temp
°C
App
Temp
°C
Dew
Point
°C
Rel
Hum
%
Delta-T
°C
Wind Press
QNH
hPa
Press
MSL
hPa
Rain since
9am
mm
Dir  Spd
km/h
Gust
km/h
Spd
kts
Gust
kts
21/11:30pm 10.9 4.4 8.8 87 1.0 W 33 44 18 24 1014.5 1014.6 5.6
21/11:00pm 11.0 4.5 8.8 86 1.1 WNW 33 48 18 26 1014.3 1014.4 5.6
21/10:30pm 11.3 5.4 9.0 86 1.1 WNW 30 39 16 21 1013.9 1014.0 5.6
21/10:06pm 10.8 4.6 9.2 90 0.8 W 32 50 17 27 1013.9 1014.0 5.6
21/10:00pm 10.7 3.6 9.5 92 0.6 W 37 52 20 28 1013.7 1013.7 5.6
21/09:30pm 11.6 5.2 9.3 86 1.2 W 33 43 18 23 1013.3 1013.3 5.6
21/09:03pm 11.7 4.9 9.1 84 1.3 WNW 35 43 19 23 1013.0 1013.0 5.6
21/09:00pm 11.7 5.3 9.3 85 1.2 WNW 33 44 18 24 1013.0 1013.0 5.6
21/08:30pm 11.7 6.1 10.1 90 0.8 WNW 30 39 16 21 1012.5 1012.5 5.6
21/08:00pm 12.2 6.1 10.3 88 1.0 WNW 33 46 18 25 1011.9 1011.9 5.6
21/07:30pm 12.4 6.5 10.6 89 0.9 WNW 32 43 17 23 1011.7 1011.7 5.6
21/07:03pm 12.2 6.4 10.9 92 0.7 WNW 32 43 17 23 1011.1 1011.1 5.6
21/07:00pm 12.2 6.4 10.9 92 0.7 WNW 32 43 17 23 1011.0 1011.0 5.6
21/06:30pm 12.3 7.2 10.7 90 0.8 WNW 28 37 15 20 1010.4 1010.4 5.6
21/06:00pm 12.5 5.3 10.7 89 0.9 WNW 39 54 21 29 1009.8 1009.8 5.6
21/05:35pm 13.6 8.9 12.0 90 0.9 NW 28 46 15 25 1009.3 1009.3 5.6
21/05:30pm 13.8 9.5 12.0 89 1.0 NW 26 33 14 18 1009.1 1009.1 5.6
21/05:00pm 14.2 9.2 12.2 88 1.1 NW 30 37 16 20 1008.8 1008.8 5.6
21/04:30pm 14.4 10.9 13.3 93 0.6 NW 24 35 13 19 1008.1 1008.1 5.6
21/04:07pm 12.8 8.3 12.6 99 0.1 NW 28 39 15 21 1008.0 1008.0 5.4
21/04:00pm 12.8 8.3 12.6 99 0.1 NW 28 41 15 22 1007.9 1007.9 5.4
21/03:30pm 12.6 6.7 12.3 98 0.2 WNW 35 46 19 25 1008.5 1008.5 3.4
21/03:17pm 13.8 6.9 12.7 93 0.6 WNW 41 61 22 33 1008.5 1008.5 1.4
21/03:12pm 14.6 6.3 12.5 87 1.1 WNW 48 67 26 36 1008.2 1008.2 1.0
21/03:03pm 18.4 14.4 13.1 71 3.0 N 26 63 14 34 1007.7 1007.7 1.0
21/03:00pm 17.5 14.4 13.4 77 2.3 N 22 35 12 19 1007.2 1007.2 1.0
21/02:30pm 17.7 15.5 15.0 84 1.6 NNE 20 28 11 15 1005.4 1005.4 1.0
21/02:00pm 19.3 16.3 13.7 70 3.2 NNE 22 32 12 17 1005.4 1005.4 1.0
21/01:30pm 16.8 13.0 13.7 82 1.8 NNE 26 50 14 27 1005.9 1005.9 1.0
21/01:00pm 18.2 13.5 13.1 72 2.9 N 30 50 16 27 1007.0 1007.0 0.0
21/12:30pm 17.4 11.8 13.3 77 2.3 NNE 35 54 19 29 1006.9 1006.9 0.0
21/12:27pm 17.7 12.1 13.4 76 2.4 NNE 35 54 19 29 1006.9 1006.9 0.0
21/12:00pm 17.3 9.8 13.8 80 2.0 NNE 46 63 25 34 1006.5 1006.5 0.0
21/11:30am 17.3 9.4 13.8 80 2.0 NNE 48 69 26 37 1006.3 1006.3 0.0
21/11:07am 17.1 8.8 13.8 81 1.9 NNE 50 69 27 37 1006.4 1006.4 0.0
21/11:00am 17.2 8.6 13.9 81 1.9 NNE 52 65 28 35 1006.3 1006.3 0.0
21/10:32am 17.3 8.3 14.0 81 1.9 NNE 54 72 29 39 1006.7 1006.7 0.0
21/10:30am 17.3 8.8 14.2 82 1.8 NNE 52 69 28 37 1006.8 1006.8 0.0
21/10:00am 17.9 9.7 14.2 79 2.1 NNE 50 70 27 38 1006.3 1006.3 0.0
21/09:30am 17.9 8.7 14.4 80 2.0 NE 56 74 30 40 1007.3 1007.3 0.0
21/09:00am 17.5 8.6 14.2 81 1.9 NNE 54 72 29 39 1007.9 1007.9 0.0
21/08:44am 17.2 9.1 14.3 83 1.7 NNE 50 70 27 38 1008.4 1008.4 0.0
21/08:30am 17.2 9.0 14.1 82 1.8 NNE 50 67 27 36 1008.3 1008.3 0.0
21/08:00am 16.9 8.0 14.2 84 1.5 NNE 54 80 29 43 1008.4 1008.4 0.0
21/07:30am 17.1 8.9 14.0 82 1.8 NNE 50 70 27 38 1008.5 1008.5 0.0
21/07:28am 17.1 8.5 14.0 82 1.8 NNE 52 70 28 38 1008.4 1008.4 0.0
21/07:00am 16.6 8.8 14.1 85 1.4 NNE 48 63 26 34 1008.9 1008.9 0.0
21/06:31am 16.2 8.7 14.0 87 1.2 NNE 46 65 25 35 1009.1 1009.1 0.0
21/06:30am 16.3 8.5 14.1 87 1.2 NNE 48 65 26 35 1009.1 1009.1 0.0
21/06:02am 16.3 8.6 14.3 88 1.1 NNE 48 67 26 36 1009.4 1009.4 0.0
21/06:00am 16.3 8.2 14.3 88 1.1 NNE 50 67 27 36 1009.4 1009.4 0.0
21/05:35am 16.1 8.7 14.3 89 1.0 NNE 46 65 25 35 1009.7 1009.7 0.0
21/05:30am 16.1 8.7 14.1 88 1.1 NNE 46 59 25 32 1009.7 1009.7 0.0
21/05:00am 16.2 9.4 14.2 88 1.1 NNE 43 57 23 31 1009.8 1009.8 0.0
21/04:39am 16.2 8.7 14.0 87 1.2 NNE 46 65 25 35 1010.1 1010.1 0.0
21/04:30am 16.4 9.5 14.1 86 1.3 NNE 43 57 23 31 1010.3 1010.3 0.0
21/04:00am 16.3 9.5 14.3 88 1.1 NNE 43 56 23 30 1010.4 1010.4 0.0
21/03:30am 16.1 9.1 14.3 89 1.0 NNE 44 57 24 31 1010.8 1010.8 0.0
21/03:00am 16.2 9.4 14.4 89 1.0 NNE 43 56 23 30 1010.9 1010.9 0.0
21/02:30am 15.5 9.5 14.4 93 0.6 NE 39 50 21 27 1011.3 1011.3 0.0
21/02:00am 15.4 10.1 14.3 93 0.6 NE 35 44 19 24 1012.0 1012.0 0.0
21/01:30am 15.4 10.5 14.4 94 0.6 NE 33 43 18 23 1012.4 1012.4 0.0
21/01:00am 15.3 10.1 14.5 95 0.5 NE 35 44 19 24 1013.1 1013.1 0.0
21/12:30am 15.7 10.6 14.7 94 0.6 NE 35 48 19 26 1013.3 1013.3 0.0
21/12:00am 15.6 10.6 15.0 96 0.3 NE 35 46 19 25 1013.8 1013.9 0.0
 
Date/Time
EST
Temp
°C
App
Temp
°C
Dew
Point
°C
Rel
Hum
%
Delta-T
°C
Wind Press
QNH
hPa
Press
MSL
hPa
Rain since
9am
mm
Dir  Spd
km/h
Gust
km/h
Spd
kts
Gust
kts
20/11:30pm 15.8 10.8 15.0 95 0.5 NE 35 54 19 29 1014.2 1014.3 0.0
20/11:29pm 15.8 10.8 15.0 95 0.5 NE 35 54 19 29 1014.2 1014.3 0.0
20/11:00pm 15.8 10.8 15.0 95 0.5 NE 35 48 19 26 1014.5 1014.6 0.0
20/10:30pm 16.0 9.8 15.0 94 0.6 NNE 41 52 22 28 1014.8 1014.9 0.0
20/10:00pm 16.2 10.5 15.2 94 0.6 NE 39 54 21 29 1015.2 1015.3 0.0
20/09:30pm 15.9 11.9 15.3 96 0.3 NE 30 37 16 20 1015.4 1015.5 0.0
20/09:00pm 16.0 15.2 15.2 95 0.5 NE 13 30 7 16 1016.1 1016.2 0.0
20/08:30pm 15.8 14.7 15.3 97 0.3 E 15 24 8 13 1016.2 1016.3 0.0
20/08:13pm 15.8 14.3 15.2 96 0.3 ENE 17 26 9 14 1016.4 1016.5 0.0
20/08:00pm 15.8 13.9 15.3 97 0.3 ENE 19 30 10 16 1016.5 1016.6 0.0
20/07:30pm 15.6 12.4 15.3 98 0.2 NE 26 37 14 20 1016.5 1016.6 0.0
20/07:00pm 15.5 10.9 15.0 97 0.3 NE 33 41 18 22 1016.2 1016.3 0.0
20/06:30pm 15.6 10.2 15.0 96 0.3 NE 37 48 20 26 1016.2 1016.3 0.0
20/06:00pm 15.8 11.1 14.3 91 0.9 NE 32 41 17 22 1016.5 1016.6 0.0
20/05:30pm 16.3 11.3 14.1 87 1.2 NE 33 41 18 22 1016.3 1016.4 0.0
20/05:00pm 16.8 12.8 14.1 84 1.5 NE 28 37 15 20 1016.6 1016.7 0.0
20/04:30pm 17.7 13.0 14.2 80 2.0 ENE 32 37 17 20 1016.4 1016.5 0.0
20/04:00pm 18.0 14.7 14.1 78 2.2 NE 24 32 13 17 1016.5 1016.6 0.0

Other formats

Comma delimited format used in spreadsheet applications
http://www.bom.gov.au/fwo/IDT60801/IDT60801.94980.axf

JavaScript Object Notation format (JSON) in row-major order
http://www.bom.gov.au/fwo/IDT60801/IDT60801.94980.json

Data quality

Most of these data are generated automatically and are frequently updated. Quality checks on data are not normally performed. It is possible for incorrect values to appear. Refer to information at About Latest Weather Observations and please check the disclaimer before using these data.